createdAt,value
2018-08-03T00:00:11.632Z,84.45
2018-08-03T00:02:37.941Z,84.81
2018-08-03T00:05:04.251Z,85.52
2018-08-03T00:07:30.570Z,85.58
2018-08-03T00:09:56.885Z,85.55
2018-08-03T00:12:23.197Z,85.24
2018-08-03T00:14:49.508Z,84.53
2018-08-03T00:17:15.820Z,84.48
2018-08-03T00:19:42.137Z,84.86
2018-08-03T00:22:08.449Z,84.83
2018-08-03T00:24:34.758Z,84.60
2018-08-03T00:27:01.069Z,84.11
2018-08-03T00:29:27.382Z,83.90
2018-08-03T00:31:53.704Z,83.34
2018-08-03T00:34:20.021Z,83.26
2018-08-03T00:36:46.333Z,83.69
2018-08-03T00:39:12.650Z,84.32
2018-08-03T00:41:39.023Z,84.71
2018-08-03T00:44:05.338Z,85.18
2018-08-03T00:46:31.659Z,86.03
2018-08-03T00:48:57.983Z,86.39
2018-08-03T00:51:24.303Z,86.69
2018-08-03T00:53:50.616Z,86.88
2018-08-03T00:56:16.993Z,86.93
2018-08-03T00:58:43.290Z,86.55
2018-08-03T01:01:09.603Z,86.33
2018-08-03T01:03:35.915Z,85.28
2018-08-03T01:06:02.228Z,85.37
2018-08-03T01:08:28.549Z,85.17
2018-08-03T01:10:54.873Z,85.85
2018-08-03T01:13:21.191Z,85.86
2018-08-03T01:15:47.504Z,86.50
2018-08-03T01:18:13.814Z,86.89
2018-08-03T01:20:40.126Z,87.15
2018-08-03T01:23:06.441Z,87.49
2018-08-03T01:25:32.763Z,88.26
2018-08-03T01:27:59.079Z,89.02
2018-08-03T01:30:25.396Z,89.67
2018-08-03T01:32:51.712Z,90.58
2018-08-03T01:35:18.025Z,90.36
2018-08-03T01:37:44.363Z,89.94
2018-08-03T01:40:10.649Z,89.54
2018-08-03T01:42:36.962Z,89.03
2018-08-03T01:45:03.273Z,87.98
2018-08-03T01:47:29.588Z,87.87
2018-08-03T01:49:55.897Z,88.01
2018-08-03T01:52:22.207Z,87.85
2018-08-03T01:54:48.519Z,87.79
2018-08-03T01:57:14.839Z,86.79
2018-08-03T01:59:41.165Z,86.44
2018-08-03T02:02:07.468Z,86.56
2018-08-03T02:04:33.790Z,86.57
2018-08-03T02:07:00.102Z,87.10
2018-08-03T02:09:26.413Z,86.88
2018-08-03T02:11:52.725Z,86.52
2018-08-03T02:14:19.037Z,86.41
2018-08-03T02:16:45.365Z,86.39
2018-08-03T02:19:11.711Z,86.36
2018-08-03T02:21:38.020Z,86.11
2018-08-03T02:24:04.373Z,86.03
2018-08-03T02:26:30.683Z,85.97
2018-08-03T02:28:57.042Z,86.08
2018-08-03T02:31:23.353Z,86.30
2018-08-03T02:33:49.666Z,86.14
2018-08-03T02:36:16.037Z,86.63
2018-08-03T02:38:42.344Z,86.42
2018-08-03T02:41:08.660Z,86.16
2018-08-03T02:43:35.026Z,85.79
2018-08-03T02:46:01.292Z,86.62
2018-08-03T02:48:27.611Z,87.63
2018-08-03T02:50:53.967Z,88.07
2018-08-03T02:53:20.281Z,88.47
2018-08-03T02:55:46.606Z,88.63
2018-08-03T02:58:12.927Z,88.31
2018-08-03T03:00:39.241Z,88.57
2018-08-03T03:03:05.561Z,89.24
2018-08-03T03:05:31.890Z,89.14
2018-08-03T03:07:58.210Z,89.00
2018-08-03T03:10:24.522Z,88.71
2018-08-03T03:12:50.844Z,89.14
2018-08-03T03:15:17.163Z,89.35
2018-08-03T03:17:43.474Z,89.01
2018-08-03T03:20:09.787Z,88.60
2018-08-03T03:22:36.097Z,88.16
2018-08-03T03:25:02.408Z,88.53
2018-08-03T03:27:28.722Z,88.82
2018-08-03T03:29:55.036Z,89.43
2018-08-03T03:32:21.360Z,89.93
2018-08-03T03:34:47.684Z,90.69
2018-08-03T03:37:14.003Z,90.24
2018-08-03T03:39:40.310Z,89.70
2018-08-03T03:42:06.627Z,89.38
2018-08-03T03:44:32.936Z,89.77
2018-08-03T03:46:59.253Z,90.04
2018-08-03T03:49:25.617Z,90.18
2018-08-03T03:51:51.930Z,90.60
2018-08-03T03:54:18.249Z,90.70
2018-08-03T03:56:44.571Z,90.71
2018-08-03T03:59:10.898Z,91.19
2018-08-03T04:01:37.208Z,90.47
2018-08-03T04:04:03.528Z,90.06
2018-08-03T04:06:29.848Z,89.81
2018-08-03T04:08:56.158Z,89.96
2018-08-03T04:11:22.477Z,89.62
2018-08-03T04:13:48.788Z,88.85
2018-08-03T04:16:15.105Z,88.32
2018-08-03T04:18:41.416Z,88.09
2018-08-03T04:21:07.731Z,88.68
2018-08-03T04:23:34.036Z,88.65
2018-08-03T04:26:00.346Z,88.89
2018-08-03T04:28:26.657Z,89.22
2018-08-03T04:30:52.973Z,89.13
2018-08-03T04:33:19.295Z,88.35
2018-08-03T04:35:45.605Z,88.40
2018-08-03T04:38:11.920Z,87.83
2018-08-03T04:40:38.267Z,87.76
2018-08-03T04:43:04.571Z,87.92
2018-08-03T04:45:30.880Z,88.06
2018-08-03T04:47:57.196Z,88.00
2018-08-03T04:50:23.514Z,88.34
2018-08-03T04:52:49.875Z,88.29
2018-08-03T04:55:16.216Z,87.78
2018-08-03T04:57:42.527Z,87.23
2018-08-03T05:00:08.836Z,86.08
2018-08-03T05:02:35.149Z,84.90
2018-08-03T05:05:01.467Z,82.82
2018-08-03T05:07:27.773Z,82.75
2018-08-03T05:09:54.089Z,83.29
2018-08-03T05:12:20.453Z,84.21
2018-08-03T05:14:46.763Z,83.75
2018-08-03T05:17:13.071Z,83.61
2018-08-03T05:19:39.385Z,82.71
2018-08-03T05:22:05.739Z,83.32
2018-08-03T05:24:32.094Z,81.32
2018-08-03T05:26:58.409Z,76.11
2018-08-03T05:29:24.725Z,76.02
2018-08-03T05:31:51.068Z,77.51
2018-08-03T05:34:17.345Z,76.00
2018-08-03T05:36:43.669Z,70.54
2018-08-03T05:39:09.981Z,66.03
2018-08-03T05:41:36.306Z,65.39
2018-08-03T05:44:02.621Z,63.94
2018-08-03T05:46:28.959Z,65.19
2018-08-03T05:48:55.320Z,63.15
2018-08-03T05:51:21.676Z,60.76
2018-08-03T05:53:47.992Z,58.12
2018-08-03T05:56:14.310Z,57.05
2018-08-03T05:58:40.669Z,58.27
2018-08-03T06:01:06.988Z,59.37
2018-08-03T06:03:33.307Z,58.97
2018-08-03T06:05:59.620Z,62.71
2018-08-03T06:08:25.934Z,65.48
2018-08-03T06:10:52.252Z,67.15
2018-08-03T06:13:18.564Z,67.46
2018-08-03T06:15:44.871Z,68.09
2018-08-03T06:18:11.186Z,67.62
2018-08-03T06:20:37.514Z,63.44
2018-08-03T06:23:03.850Z,60.00
2018-08-03T06:25:30.159Z,56.62
2018-08-03T06:27:56.473Z,55.64
2018-08-03T06:30:22.829Z,54.03
2018-08-03T06:32:49.145Z,54.40
2018-08-03T06:35:15.462Z,51.36
2018-08-03T06:37:41.773Z,51.71
2018-08-03T06:40:08.082Z,53.56
2018-08-03T06:42:34.392Z,53.39
2018-08-03T06:45:00.703Z,54.86
2018-08-03T06:47:27.011Z,55.29
2018-08-03T06:49:53.324Z,54.16
2018-08-03T06:52:19.644Z,56.30
2018-08-03T06:54:45.956Z,56.19
2018-08-03T06:57:12.275Z,54.42
2018-08-03T06:59:38.587Z,53.41
2018-08-03T07:02:04.913Z,52.13
2018-08-03T07:04:31.298Z,53.97
2018-08-03T07:06:57.587Z,54.79
2018-08-03T07:09:23.901Z,57.86
2018-08-03T07:11:50.257Z,58.10
2018-08-03T07:14:16.568Z,58.17
2018-08-03T07:16:42.886Z,59.97
2018-08-03T07:19:09.201Z,61.74
2018-08-03T07:21:35.520Z,62.05
2018-08-03T07:24:01.844Z,63.43
2018-08-03T07:26:28.159Z,61.26
2018-08-03T07:28:54.475Z,60.81
2018-08-03T07:31:20.792Z,59.85
2018-08-03T07:33:47.104Z,57.46
2018-08-03T07:36:13.426Z,52.63
2018-08-03T07:38:39.731Z,49.57
2018-08-03T07:41:06.040Z,49.56
2018-08-03T07:43:32.507Z,54.27
2018-08-03T07:45:58.712Z,56.38
2018-08-03T07:48:25.021Z,56.28
2018-08-03T07:50:51.333Z,57.39
2018-08-03T07:53:17.645Z,58.19
2018-08-03T07:55:43.958Z,58.42
2018-08-03T07:58:10.263Z,60.16
2018-08-03T08:00:36.581Z,60.61
2018-08-03T08:03:02.903Z,60.56
2018-08-03T08:05:29.208Z,61.52
2018-08-03T08:07:55.554Z,60.99
2018-08-03T08:10:21.858Z,61.13
2018-08-03T08:12:48.176Z,60.74
2018-08-03T08:15:14.550Z,61.49
2018-08-03T08:17:40.832Z,61.49
2018-08-03T08:20:07.158Z,61.49
2018-08-03T08:22:33.473Z,61.19
2018-08-03T08:24:59.784Z,59.93
2018-08-03T08:27:26.097Z,59.50
2018-08-03T08:29:52.413Z,58.23
2018-08-03T08:32:18.734Z,58.30
2018-08-03T08:34:45.047Z,58.77
2018-08-03T08:37:11.377Z,58.63
2018-08-03T08:39:37.683Z,58.72
2018-08-03T08:42:03.994Z,58.05
2018-08-03T08:44:30.303Z,58.13
2018-08-03T08:46:56.632Z,56.67
2018-08-03T08:49:25.481Z,54.83
2018-08-03T08:51:51.790Z,52.52
2018-08-03T08:54:18.110Z,48.60
2018-08-03T08:56:44.414Z,49.00
2018-08-03T08:59:10.727Z,49.41
2018-08-03T09:01:37.031Z,49.75
2018-08-03T09:04:03.342Z,46.14
2018-08-03T09:06:29.652Z,45.11
2018-08-03T09:08:56.002Z,43.47
2018-08-03T09:11:22.308Z,43.06
2018-08-03T09:13:48.620Z,43.24
2018-08-03T09:16:14.937Z,42.38
2018-08-03T09:18:41.248Z,45.77
2018-08-03T09:21:07.570Z,46.42
2018-08-03T09:23:33.888Z,46.36
2018-08-03T09:26:00.207Z,45.94
2018-08-03T09:28:26.586Z,45.48
2018-08-03T09:30:52.911Z,44.99
2018-08-03T09:33:19.193Z,43.19
2018-08-03T09:35:45.506Z,41.35
2018-08-03T09:38:11.826Z,40.21
2018-08-03T09:40:38.132Z,39.61
2018-08-03T09:43:04.486Z,38.96
2018-08-03T09:45:30.793Z,39.57
2018-08-03T09:47:57.116Z,37.97
2018-08-03T09:50:23.432Z,37.41
2018-08-03T09:52:49.743Z,37.25
2018-08-03T09:55:16.087Z,37.78
2018-08-03T09:57:42.362Z,37.89
2018-08-03T10:00:08.677Z,39.56
2018-08-03T10:02:34.980Z,38.81
2018-08-03T10:05:01.289Z,37.92
2018-08-03T10:07:27.631Z,37.51
2018-08-03T10:09:53.924Z,35.86
2018-08-03T10:12:20.235Z,37.37
2018-08-03T10:14:46.548Z,36.21
2018-08-03T10:17:12.865Z,35.37
2018-08-03T10:19:39.180Z,35.50
2018-08-03T10:22:05.492Z,36.25
2018-08-03T10:24:31.809Z,34.90
2018-08-03T10:26:58.136Z,34.51
2018-08-03T10:29:24.458Z,35.82
2018-08-03T10:31:50.772Z,34.59
2018-08-03T10:34:17.078Z,35.73
2018-08-03T10:36:43.398Z,37.87
2018-08-03T10:39:09.710Z,37.46
2018-08-03T10:41:36.019Z,36.33
2018-08-03T10:44:02.378Z,37.36
2018-08-03T10:46:28.687Z,36.40
2018-08-03T10:48:55.000Z,35.95
2018-08-03T10:51:21.333Z,36.66
2018-08-03T10:53:47.646Z,38.47
2018-08-03T10:56:13.969Z,39.76
2018-08-03T10:58:40.280Z,39.27
2018-08-03T11:01:06.615Z,36.75
2018-08-03T11:03:32.952Z,35.49
2018-08-03T11:05:59.244Z,34.56
2018-08-03T11:08:25.550Z,35.96
2018-08-03T11:10:51.866Z,37.01
2018-08-03T11:13:18.189Z,36.54
2018-08-03T11:15:44.501Z,37.31
2018-08-03T11:18:10.843Z,39.95
2018-08-03T11:20:37.156Z,40.76
2018-08-03T11:23:03.465Z,38.74
2018-08-03T11:25:29.779Z,38.09
2018-08-03T11:27:56.987Z,37.38
2018-08-03T11:30:23.290Z,37.49
2018-08-03T11:32:49.595Z,39.34
2018-08-03T11:35:16.177Z,39.87
2018-08-03T11:37:42.463Z,39.95
2018-08-03T11:40:08.771Z,39.10
2018-08-03T11:42:35.090Z,39.58
2018-08-03T11:45:01.405Z,38.79
2018-08-03T11:47:27.719Z,40.50
2018-08-03T11:49:54.048Z,40.75
2018-08-03T11:52:20.367Z,39.90
2018-08-03T11:54:46.680Z,39.67
2018-08-03T11:57:12.991Z,39.65
2018-08-03T11:59:39.294Z,39.65
2018-08-03T12:02:05.610Z,39.16
2018-08-03T12:04:31.973Z,39.52
2018-08-03T12:06:58.289Z,38.95
2018-08-03T12:09:24.598Z,38.81
2018-08-03T12:11:50.909Z,39.09
2018-08-03T12:14:17.215Z,40.76
2018-08-03T12:16:43.580Z,40.84
2018-08-03T12:19:09.907Z,40.19
2018-08-03T12:21:36.251Z,40.38
2018-08-03T12:24:02.565Z,40.86
2018-08-03T12:26:28.879Z,40.93
2018-08-03T12:28:55.230Z,41.32
2018-08-03T12:31:21.575Z,41.49
2018-08-03T12:33:47.861Z,40.20
2018-08-03T12:36:14.174Z,41.50
2018-08-03T12:38:40.485Z,41.91
2018-08-03T12:41:06.792Z,41.71
2018-08-03T12:43:33.119Z,42.52
2018-08-03T12:45:59.512Z,42.41
2018-08-03T12:48:25.768Z,42.66
2018-08-03T12:50:52.084Z,41.07
2018-08-03T12:53:18.439Z,40.75
2018-08-03T12:55:44.810Z,41.79
2018-08-03T13:06:06.085Z,43.25
2018-08-03T13:08:32.436Z,42.82
2018-08-03T13:10:58.763Z,42.50
2018-08-03T13:13:25.064Z,43.11
2018-08-03T13:15:51.369Z,43.43
2018-08-03T13:18:17.689Z,42.03
2018-08-03T13:20:44.004Z,41.44
2018-08-03T13:23:10.317Z,42.21
2018-08-03T13:25:36.629Z,41.33
2018-08-03T13:28:02.942Z,41.82
2018-08-03T13:30:29.288Z,42.38
2018-08-03T13:32:55.592Z,44.28
2018-08-03T13:35:21.904Z,44.42
2018-08-03T13:37:48.232Z,44.47
2018-08-03T13:40:14.545Z,44.30
2018-08-03T13:42:40.864Z,44.57
2018-08-03T13:45:07.180Z,44.56
2018-08-03T13:47:33.498Z,45.03
2018-08-03T13:49:59.814Z,44.01
2018-08-03T13:52:26.125Z,43.57
2018-08-03T13:54:52.436Z,42.83
2018-08-03T13:57:18.790Z,43.39
2018-08-03T13:59:45.144Z,44.72
2018-08-03T14:02:11.447Z,45.06
2018-08-03T14:04:37.756Z,45.78
2018-08-03T14:07:04.079Z,46.26
2018-08-03T14:09:30.410Z,46.39
2018-08-03T14:11:56.718Z,46.14
2018-08-03T14:14:23.035Z,45.83
2018-08-03T14:16:49.378Z,46.59
2018-08-03T14:19:15.694Z,45.92
2018-08-03T14:21:42.016Z,46.23
2018-08-03T14:24:08.333Z,46.38
2018-08-03T14:26:34.649Z,46.46
2018-08-03T14:29:00.973Z,46.40
2018-08-03T14:31:27.376Z,46.09
2018-08-03T14:33:53.600Z,46.29
2018-08-03T14:36:19.912Z,46.48
2018-08-03T14:38:46.220Z,47.05
2018-08-03T14:41:12.534Z,47.60
2018-08-03T14:43:38.843Z,47.49
2018-08-03T14:46:05.156Z,47.33
2018-08-03T14:48:31.494Z,46.82
2018-08-03T14:50:57.829Z,46.78
2018-08-03T14:53:24.142Z,47.65
2018-08-03T14:55:50.460Z,48.08
2018-08-03T14:58:16.782Z,47.96
2018-08-03T15:00:43.108Z,48.65
2018-08-03T15:03:09.463Z,48.86
2018-08-03T15:05:35.772Z,47.41
2018-08-03T15:08:02.178Z,46.87
2018-08-03T15:10:28.464Z,46.76
2018-08-03T15:12:54.779Z,47.93
2018-08-03T15:15:21.098Z,48.43
2018-08-03T15:17:47.462Z,49.35
2018-08-03T15:20:13.832Z,50.20
2018-08-03T15:22:40.155Z,50.44
2018-08-03T15:25:06.462Z,50.86
2018-08-03T15:27:32.826Z,51.49
2018-08-03T15:29:59.181Z,50.90
2018-08-03T15:32:25.495Z,50.00
2018-08-03T15:34:51.802Z,49.83
2018-08-03T15:37:18.118Z,49.29
2018-08-03T15:39:44.424Z,50.32
2018-08-03T15:42:10.776Z,50.48
2018-08-03T15:44:37.090Z,50.72
2018-08-03T15:47:03.401Z,51.06
2018-08-03T15:49:29.707Z,50.92
2018-08-03T15:51:56.021Z,51.65
2018-08-03T15:54:22.337Z,51.53
2018-08-03T15:56:48.731Z,52.12
2018-08-03T15:59:15.004Z,52.48
2018-08-03T16:01:41.322Z,53.09
2018-08-03T16:04:07.632Z,53.52
2018-08-03T16:06:33.948Z,53.75
2018-08-03T16:09:00.259Z,53.43
2018-08-03T16:11:26.614Z,53.51
2018-08-03T16:13:52.932Z,53.27
2018-08-03T16:16:19.239Z,53.74
2018-08-03T16:18:45.605Z,53.83
2018-08-03T16:21:11.872Z,53.53
2018-08-03T16:23:38.185Z,53.41
2018-08-03T16:26:04.498Z,53.24
2018-08-03T16:28:30.813Z,53.48
2018-08-03T16:30:57.123Z,53.70
2018-08-03T16:33:23.440Z,53.42
2018-08-03T16:35:49.751Z,53.85
2018-08-03T16:38:16.070Z,54.29
2018-08-03T16:40:42.394Z,54.65
2018-08-03T16:43:08.704Z,55.10
2018-08-03T16:45:35.023Z,55.31
2018-08-03T16:48:01.336Z,55.45
2018-08-03T16:50:27.648Z,55.58
2018-08-03T16:52:53.967Z,55.65
2018-08-03T16:55:20.276Z,55.91
2018-08-03T16:57:46.592Z,56.03
2018-08-03T17:00:12.907Z,56.25
2018-08-03T17:02:39.223Z,56.63
2018-08-03T17:05:05.534Z,56.61
2018-08-03T17:07:31.848Z,57.01
2018-08-03T17:09:58.165Z,56.98
2018-08-03T17:12:24.523Z,57.27
2018-08-03T17:14:50.840Z,57.31
2018-08-03T17:17:17.153Z,56.81
2018-08-03T17:19:43.473Z,56.96
2018-08-03T17:22:09.782Z,57.16
2018-08-03T17:24:36.093Z,56.95
2018-08-03T17:27:05.475Z,57.30
2018-08-03T17:29:31.790Z,57.09
2018-08-03T17:31:58.116Z,57.02
2018-08-03T17:34:24.407Z,56.62
2018-08-03T17:36:50.816Z,56.90
2018-08-03T17:39:17.102Z,56.75
2018-08-03T17:41:43.411Z,57.34
2018-08-03T17:44:09.725Z,57.74
2018-08-03T17:46:36.058Z,57.82
2018-08-03T17:49:02.427Z,58.02
2018-08-03T17:51:28.756Z,58.32
2018-08-03T17:53:55.077Z,58.58
2018-08-03T17:56:21.390Z,58.52
2018-08-03T17:58:47.699Z,58.81
2018-08-03T18:01:14.022Z,58.57
2018-08-03T18:03:40.372Z,58.85
2018-08-03T18:06:06.684Z,58.88
2018-08-03T18:08:33.038Z,58.96
2018-08-03T18:10:59.356Z,59.20
2018-08-03T18:13:25.707Z,59.37
2018-08-03T18:15:52.048Z,59.52
2018-08-03T18:18:18.340Z,59.49
2018-08-03T18:20:44.659Z,59.70
2018-08-03T18:23:10.967Z,60.11
2018-08-03T18:25:37.288Z,60.11
2018-08-03T18:28:03.621Z,60.37
2018-08-03T18:30:29.963Z,60.37
2018-08-03T18:32:56.297Z,60.52
2018-08-03T18:35:22.614Z,60.28
2018-08-03T18:37:48.945Z,60.64
2018-08-03T18:40:15.320Z,61.23
2018-08-03T18:42:41.630Z,61.63
2018-08-03T18:45:08.000Z,61.92
2018-08-03T18:47:34.320Z,61.59
2018-08-03T18:50:00.637Z,61.54
2018-08-03T18:52:26.948Z,61.81
2018-08-03T18:54:53.256Z,61.77
2018-08-03T18:57:19.563Z,62.11
2018-08-03T18:59:45.881Z,62.11
2018-08-03T19:02:12.203Z,62.25
2018-08-03T19:04:38.521Z,62.52
2018-08-03T19:07:04.839Z,62.51
2018-08-03T19:09:31.141Z,63.18
2018-08-03T19:11:57.464Z,63.75
2018-08-03T19:14:23.789Z,64.15
2018-08-03T19:16:50.156Z,64.22
2018-08-03T19:19:16.465Z,65.33
2018-08-03T19:21:42.836Z,64.24
2018-08-03T19:24:09.103Z,63.91
2018-08-03T19:26:35.486Z,63.89
2018-08-03T19:29:01.971Z,64.78
2018-08-03T19:31:28.439Z,64.14
2018-08-03T19:33:54.765Z,64.14
2018-08-03T19:36:21.147Z,65.61
2018-08-03T19:38:47.489Z,66.06
2018-08-03T19:41:13.860Z,65.97
2018-08-03T19:43:40.286Z,65.43
2018-08-03T19:46:06.665Z,65.69
2018-08-03T19:48:33.082Z,65.12
2018-08-03T19:50:59.454Z,65.55
2018-08-03T19:53:25.885Z,65.93
2018-08-03T19:55:52.190Z,66.29
2018-08-03T19:58:18.495Z,65.16
2018-08-03T20:00:44.800Z,65.74
2018-08-03T20:03:11.107Z,66.74
2018-08-03T20:05:37.419Z,66.88
2018-08-03T20:08:03.720Z,67.06
2018-08-03T20:10:30.072Z,66.90
2018-08-03T20:12:56.379Z,67.08
2018-08-03T20:15:22.733Z,67.54
2018-08-03T20:17:49.048Z,66.84
2018-08-03T20:20:15.365Z,66.94
2018-08-03T20:22:41.727Z,67.95
2018-08-03T20:25:08.038Z,67.21
2018-08-03T20:27:34.359Z,67.15
2018-08-03T20:30:00.678Z,67.78
2018-08-03T20:32:26.987Z,67.21
2018-08-03T20:34:53.303Z,67.94
2018-08-03T20:37:19.610Z,67.86
2018-08-03T20:39:45.964Z,68.02
2018-08-03T20:42:12.346Z,66.92
2018-08-03T20:44:38.696Z,68.24
2018-08-03T20:47:04.966Z,67.32
2018-08-03T20:49:31.280Z,67.96
2018-08-03T20:51:57.622Z,68.88
2018-08-03T20:54:23.933Z,69.77
2018-08-03T20:56:50.242Z,70.31
2018-08-03T20:59:16.552Z,70.06
2018-08-03T21:01:42.863Z,70.35
2018-08-03T21:04:09.172Z,70.39
2018-08-03T21:06:35.484Z,69.92
2018-08-03T21:09:01.792Z,70.10
2018-08-03T21:11:28.111Z,69.79
2018-08-03T21:13:54.486Z,69.56
2018-08-03T21:16:20.798Z,70.00
2018-08-03T21:18:47.111Z,68.95
2018-08-03T21:21:13.420Z,68.79
2018-08-03T21:23:39.743Z,69.42
2018-08-03T21:26:06.066Z,68.29
2018-08-03T21:28:32.378Z,68.71
2018-08-03T21:30:58.698Z,69.41
2018-08-03T21:33:25.010Z,69.44
2018-08-03T21:35:51.321Z,69.71
2018-08-03T21:38:17.673Z,69.92
2018-08-03T21:40:43.988Z,70.46
2018-08-03T21:43:10.295Z,70.83
2018-08-03T21:45:36.658Z,71.19
2018-08-03T21:48:03.005Z,70.92
2018-08-03T21:50:29.321Z,70.81
2018-08-03T21:52:55.695Z,71.18
2018-08-03T21:55:21.963Z,71.41
2018-08-03T21:57:48.287Z,72.38
2018-08-03T22:00:14.634Z,73.54
2018-08-03T22:02:40.947Z,74.63
2018-08-03T22:05:07.255Z,75.99
2018-08-03T22:07:33.647Z,76.64
2018-08-03T22:09:59.979Z,77.34
2018-08-03T22:12:26.316Z,77.86
2018-08-03T22:14:52.670Z,78.82
2018-08-03T22:17:18.995Z,79.13
2018-08-03T22:19:45.327Z,79.57
2018-08-03T22:22:11.666Z,79.78
2018-08-03T22:24:37.982Z,80.10
2018-08-03T22:27:04.321Z,80.48
2018-08-03T22:29:30.637Z,81.09
2018-08-03T22:31:56.938Z,81.37
2018-08-03T22:34:23.242Z,81.57
2018-08-03T22:36:49.555Z,82.01
2018-08-03T22:39:15.863Z,81.66
2018-08-03T22:41:42.176Z,82.19
2018-08-03T22:44:08.479Z,82.16
2018-08-03T22:46:34.787Z,81.81
2018-08-03T22:49:01.097Z,81.95
2018-08-03T22:51:27.403Z,81.89
2018-08-03T22:53:53.719Z,81.75
2018-08-03T22:56:20.024Z,81.16
2018-08-03T22:58:46.337Z,80.99
2018-08-03T23:01:12.667Z,81.26
2018-08-03T23:03:39.017Z,81.05
2018-08-03T23:06:05.342Z,80.98
2018-08-03T23:08:31.650Z,80.92
2018-08-03T23:10:57.960Z,81.02
2018-08-03T23:13:24.263Z,80.85
2018-08-03T23:15:50.574Z,81.01
2018-08-03T23:18:16.885Z,80.94
2018-08-03T23:20:43.200Z,80.90
2018-08-03T23:23:09.516Z,81.23
2018-08-03T23:25:35.832Z,81.36
2018-08-03T23:28:02.140Z,80.95
2018-08-03T23:30:28.451Z,80.83
2018-08-03T23:32:54.758Z,81.17
2018-08-03T23:35:21.075Z,80.86
2018-08-03T23:37:47.392Z,80.96
2018-08-03T23:40:13.707Z,81.09
2018-08-03T23:42:40.020Z,81.18
2018-08-03T23:45:06.332Z,80.86
2018-08-03T23:47:32.683Z,80.53
2018-08-03T23:49:58.961Z,80.56
2018-08-03T23:52:25.278Z,80.67
2018-08-03T23:54:51.588Z,80.72
2018-08-03T23:57:17.939Z,81.01
2018-08-03T23:59:44.257Z,81.32
